sensor_id;sensor_type;location;lat;lon;timestamp;temperature;humidity
51815;DHT22;37874;53.158;6.766;2023-04-03T00:01:29;19.70;51.30
51815;DHT22;37874;53.158;6.766;2023-04-03T00:03:55;19.70;51.30
51815;DHT22;37874;53.158;6.766;2023-04-03T00:06:21;19.60;51.20
51815;DHT22;37874;53.158;6.766;2023-04-03T00:08:48;19.70;51.30
51815;DHT22;37874;53.158;6.766;2023-04-03T00:11:13;19.70;51.30
51815;DHT22;37874;53.158;6.766;2023-04-03T00:13:40;19.70;51.30
51815;DHT22;37874;53.158;6.766;2023-04-03T00:16:07;19.70;51.30
51815;DHT22;37874;53.158;6.766;2023-04-03T00:18:32;19.50;51.20
51815;DHT22;37874;53.158;6.766;2023-04-03T00:20:58;19.60;51.30
51815;DHT22;37874;53.158;6.766;2023-04-03T00:23:24;19.70;51.30
51815;DHT22;37874;53.158;6.766;2023-04-03T00:25:50;19.60;51.30
51815;DHT22;37874;53.158;6.766;2023-04-03T00:28:16;19.60;51.30
51815;DHT22;37874;53.158;6.766;2023-04-03T00:30:42;19.80;51.40
51815;DHT22;37874;53.158;6.766;2023-04-03T00:33:08;19.60;51.30
51815;DHT22;37874;53.158;6.766;2023-04-03T00:35:35;19.60;51.30
51815;DHT22;37874;53.158;6.766;2023-04-03T00:38:01;19.60;51.30
51815;DHT22;37874;53.158;6.766;2023-04-03T00:40:27;19.60;51.30
51815;DHT22;37874;53.158;6.766;2023-04-03T00:42:57;19.60;51.30
51815;DHT22;37874;53.158;6.766;2023-04-03T00:45:36;19.60;51.20
51815;DHT22;37874;53.158;6.766;2023-04-03T00:48:05;19.50;51.20
51815;DHT22;37874;53.158;6.766;2023-04-03T00:50:34;19.50;51.20
51815;DHT22;37874;53.158;6.766;2023-04-03T00:53:00;19.50;51.20
51815;DHT22;37874;53.158;6.766;2023-04-03T00:55:27;19.50;51.10
51815;DHT22;37874;53.158;6.766;2023-04-03T00:57:55;19.50;51.20
51815;DHT22;37874;53.158;6.766;2023-04-03T01:00:23;19.50;51.20
51815;DHT22;37874;53.158;6.766;2023-04-03T01:02:50;19.40;51.20
51815;DHT22;37874;53.158;6.766;2023-04-03T01:05:16;19.50;51.30
51815;DHT22;37874;53.158;6.766;2023-04-03T01:07:43;19.40;51.30
51815;DHT22;37874;53.158;6.766;2023-04-03T01:10:13;19.40;51.20
51815;DHT22;37874;53.158;6.766;2023-04-03T01:12:42;19.40;51.10
51815;DHT22;37874;53.158;6.766;2023-04-03T01:15:11;19.40;51.20
51815;DHT22;37874;53.158;6.766;2023-04-03T01:17:43;19.40;51.20
51815;DHT22;37874;53.158;6.766;2023-04-03T01:25:49;19.40;51.20
51815;DHT22;37874;53.158;6.766;2023-04-03T01:28:20;19.40;51.30
51815;DHT22;37874;53.158;6.766;2023-04-03T01:33:40;19.40;51.30
51815;DHT22;37874;53.158;6.766;2023-04-03T01:36:07;19.30;51.20
51815;DHT22;37874;53.158;6.766;2023-04-03T01:38:33;19.30;51.30
51815;DHT22;37874;53.158;6.766;2023-04-03T01:40:58;19.30;51.30
51815;DHT22;37874;53.158;6.766;2023-04-03T01:43:24;19.30;51.20
51815;DHT22;37874;53.158;6.766;2023-04-03T01:45:49;19.30;51.30
51815;DHT22;37874;53.158;6.766;2023-04-03T01:48:16;19.30;51.30
51815;DHT22;37874;53.158;6.766;2023-04-03T01:50:42;19.30;51.30
51815;DHT22;37874;53.158;6.766;2023-04-03T01:53:08;19.30;51.30
51815;DHT22;37874;53.158;6.766;2023-04-03T01:55:34;19.30;51.30
51815;DHT22;37874;53.158;6.766;2023-04-03T01:58:00;19.20;51.30
51815;DHT22;37874;53.158;6.766;2023-04-03T02:00:25;19.20;51.30
51815;DHT22;37874;53.158;6.766;2023-04-03T02:02:52;19.20;51.30
51815;DHT22;37874;53.158;6.766;2023-04-03T02:05:18;19.20;51.30
51815;DHT22;37874;53.158;6.766;2023-04-03T02:07:43;19.20;51.30
51815;DHT22;37874;53.158;6.766;2023-04-03T02:10:10;19.20;51.30
51815;DHT22;37874;53.158;6.766;2023-04-03T02:12:35;19.20;51.30
51815;DHT22;37874;53.158;6.766;2023-04-03T02:15:01;19.20;51.30
51815;DHT22;37874;53.158;6.766;2023-04-03T02:17:27;19.20;51.30
51815;DHT22;37874;53.158;6.766;2023-04-03T02:19:52;19.20;51.30
51815;DHT22;37874;53.158;6.766;2023-04-03T02:22:18;19.20;51.30
51815;DHT22;37874;53.158;6.766;2023-04-03T02:24:44;19.20;51.30
51815;DHT22;37874;53.158;6.766;2023-04-03T02:27:10;19.10;51.30
51815;DHT22;37874;53.158;6.766;2023-04-03T02:29:35;19.10;51.30
51815;DHT22;37874;53.158;6.766;2023-04-03T02:32:01;19.20;51.40
51815;DHT22;37874;53.158;6.766;2023-04-03T02:34:26;19.10;51.40
51815;DHT22;37874;53.158;6.766;2023-04-03T02:36:52;19.10;51.30
51815;DHT22;37874;53.158;6.766;2023-04-03T02:39:18;19.10;51.30
51815;DHT22;37874;53.158;6.766;2023-04-03T02:41:43;19.10;51.30
51815;DHT22;37874;53.158;6.766;2023-04-03T02:44:10;19.10;51.40
51815;DHT22;37874;53.158;6.766;2023-04-03T02:46:36;19.10;51.40
51815;DHT22;37874;53.158;6.766;2023-04-03T02:49:01;19.10;51.40
51815;DHT22;37874;53.158;6.766;2023-04-03T02:51:27;19.00;51.40
51815;DHT22;37874;53.158;6.766;2023-04-03T02:53:58;19.00;51.90
51815;DHT22;37874;53.158;6.766;2023-04-03T02:56:24;19.00;51.90
51815;DHT22;37874;53.158;6.766;2023-04-03T02:58:52;19.00;51.40
51815;DHT22;37874;53.158;6.766;2023-04-03T03:01:18;19.00;51.40
51815;DHT22;37874;53.158;6.766;2023-04-03T03:03:43;19.00;51.40
51815;DHT22;37874;53.158;6.766;2023-04-03T03:06:12;19.00;51.40
51815;DHT22;37874;53.158;6.766;2023-04-03T03:08:38;19.00;51.50
51815;DHT22;37874;53.158;6.766;2023-04-03T03:11:04;18.90;51.40
51815;DHT22;37874;53.158;6.766;2023-04-03T03:13:31;18.90;51.40
51815;DHT22;37874;53.158;6.766;2023-04-03T03:15:57;18.90;51.40
51815;DHT22;37874;53.158;6.766;2023-04-03T03:18:22;18.90;51.50
51815;DHT22;37874;53.158;6.766;2023-04-03T03:20:52;18.90;51.50
51815;DHT22;37874;53.158;6.766;2023-04-03T03:23:19;19.00;51.50
51815;DHT22;37874;53.158;6.766;2023-04-03T03:25:44;18.90;51.40
51815;DHT22;37874;53.158;6.766;2023-04-03T03:28:10;18.90;51.40
51815;DHT22;37874;53.158;6.766;2023-04-03T03:30:36;18.90;51.40
51815;DHT22;37874;53.158;6.766;2023-04-03T03:33:02;18.90;51.50
51815;DHT22;37874;53.158;6.766;2023-04-03T03:35:28;18.90;51.50
51815;DHT22;37874;53.158;6.766;2023-04-03T03:37:53;18.90;51.60
51815;DHT22;37874;53.158;6.766;2023-04-03T03:40:19;18.90;51.50
51815;DHT22;37874;53.158;6.766;2023-04-03T03:42:45;18.80;51.50
51815;DHT22;37874;53.158;6.766;2023-04-03T03:45:11;18.80;51.50
51815;DHT22;37874;53.158;6.766;2023-04-03T03:47:36;18.80;51.50
51815;DHT22;37874;53.158;6.766;2023-04-03T03:50:02;18.80;51.40
51815;DHT22;37874;53.158;6.766;2023-04-03T03:52:28;18.80;51.50
51815;DHT22;37874;53.158;6.766;2023-04-03T03:54:55;18.80;51.50
51815;DHT22;37874;53.158;6.766;2023-04-03T03:57:21;18.80;51.50
51815;DHT22;37874;53.158;6.766;2023-04-03T03:59:47;18.80;51.50
51815;DHT22;37874;53.158;6.766;2023-04-03T04:02:14;18.80;52.10
51815;DHT22;37874;53.158;6.766;2023-04-03T04:04:40;18.70;51.50
51815;DHT22;37874;53.158;6.766;2023-04-03T04:07:05;18.70;51.50
51815;DHT22;37874;53.158;6.766;2023-04-03T04:09:31;18.70;51.50
51815;DHT22;37874;53.158;6.766;2023-04-03T04:11:56;18.70;51.50
51815;DHT22;37874;53.158;6.766;2023-04-03T04:14:22;18.70;51.60
51815;DHT22;37874;53.158;6.766;2023-04-03T04:16:48;18.70;51.50
51815;DHT22;37874;53.158;6.766;2023-04-03T04:19:13;18.70;51.60
51815;DHT22;37874;53.158;6.766;2023-04-03T04:21:39;18.70;51.50
51815;DHT22;37874;53.158;6.766;2023-04-03T04:24:07;18.60;51.60
51815;DHT22;37874;53.158;6.766;2023-04-03T04:26:33;18.70;51.60
51815;DHT22;37874;53.158;6.766;2023-04-03T04:28:58;18.70;51.60
51815;DHT22;37874;53.158;6.766;2023-04-03T04:31:24;18.60;51.50
51815;DHT22;37874;53.158;6.766;2023-04-03T04:33:50;18.60;51.50
51815;DHT22;37874;53.158;6.766;2023-04-03T04:36:15;18.60;51.50
51815;DHT22;37874;53.158;6.766;2023-04-03T04:38:41;18.60;51.60
51815;DHT22;37874;53.158;6.766;2023-04-03T04:41:07;18.60;51.60
51815;DHT22;37874;53.158;6.766;2023-04-03T04:43:34;18.60;51.60
51815;DHT22;37874;53.158;6.766;2023-04-03T04:46:07;18.60;51.60
51815;DHT22;37874;53.158;6.766;2023-04-03T04:48:34;18.50;51.60
51815;DHT22;37874;53.158;6.766;2023-04-03T04:51:00;18.60;51.60
51815;DHT22;37874;53.158;6.766;2023-04-03T04:53:26;18.60;51.60
51815;DHT22;37874;53.158;6.766;2023-04-03T04:55:52;18.60;51.50
51815;DHT22;37874;53.158;6.766;2023-04-03T04:58:18;18.60;51.50
51815;DHT22;37874;53.158;6.766;2023-04-03T05:00:43;18.50;51.60
51815;DHT22;37874;53.158;6.766;2023-04-03T05:03:10;18.60;51.60
51815;DHT22;37874;53.158;6.766;2023-04-03T05:05:36;18.50;51.60
51815;DHT22;37874;53.158;6.766;2023-04-03T05:08:03;18.50;51.70
51815;DHT22;37874;53.158;6.766;2023-04-03T05:10:28;18.50;51.70
51815;DHT22;37874;53.158;6.766;2023-04-03T05:12:54;18.50;52.30
51815;DHT22;37874;53.158;6.766;2023-04-03T05:15:20;18.50;51.80
51815;DHT22;37874;53.158;6.766;2023-04-03T05:17:45;18.50;51.70
51815;DHT22;37874;53.158;6.766;2023-04-03T05:20:12;18.50;51.80
51815;DHT22;37874;53.158;6.766;2023-04-03T05:22:37;18.50;51.70
51815;DHT22;37874;53.158;6.766;2023-04-03T05:25:04;18.50;51.70
51815;DHT22;37874;53.158;6.766;2023-04-03T05:27:30;18.50;51.60
51815;DHT22;37874;53.158;6.766;2023-04-03T05:29:55;18.50;51.50
51815;DHT22;37874;53.158;6.766;2023-04-03T05:32:22;18.50;51.50
51815;DHT22;37874;53.158;6.766;2023-04-03T05:34:48;18.50;51.50
51815;DHT22;37874;53.158;6.766;2023-04-03T05:37:14;18.50;51.50
51815;DHT22;37874;53.158;6.766;2023-04-03T05:39:39;18.50;51.50
51815;DHT22;37874;53.158;6.766;2023-04-03T05:42:06;18.50;51.50
51815;DHT22;37874;53.158;6.766;2023-04-03T05:44:32;18.50;51.50
51815;DHT22;37874;53.158;6.766;2023-04-03T05:46:58;18.50;51.60
51815;DHT22;37874;53.158;6.766;2023-04-03T05:49:23;18.50;51.60
51815;DHT22;37874;53.158;6.766;2023-04-03T05:51:49;18.50;52.10
51815;DHT22;37874;53.158;6.766;2023-04-03T05:54:20;18.50;52.30
51815;DHT22;37874;53.158;6.766;2023-04-03T05:56:49;18.50;51.50
51815;DHT22;37874;53.158;6.766;2023-04-03T05:59:16;18.50;51.50
51815;DHT22;37874;53.158;6.766;2023-04-03T06:01:41;18.50;51.40
51815;DHT22;37874;53.158;6.766;2023-04-03T06:04:07;18.50;51.30
51815;DHT22;37874;53.158;6.766;2023-04-03T06:06:54;18.40;51.30
51815;DHT22;37874;53.158;6.766;2023-04-03T06:09:23;18.40;51.40
51815;DHT22;37874;53.158;6.766;2023-04-03T06:11:51;18.40;51.40
51815;DHT22;37874;53.158;6.766;2023-04-03T06:14:17;18.90;51.60
51815;DHT22;37874;53.158;6.766;2023-04-03T06:16:43;18.40;51.30
51815;DHT22;37874;53.158;6.766;2023-04-03T06:19:09;18.40;51.40
51815;DHT22;37874;53.158;6.766;2023-04-03T06:21:36;18.40;51.40
51815;DHT22;37874;53.158;6.766;2023-04-03T06:24:03;18.40;51.60
51815;DHT22;37874;53.158;6.766;2023-04-03T06:26:28;18.40;51.50
51815;DHT22;37874;53.158;6.766;2023-04-03T06:28:54;18.40;51.70
51815;DHT22;37874;53.158;6.766;2023-04-03T06:31:20;18.40;51.70
51815;DHT22;37874;53.158;6.766;2023-04-03T06:33:45;18.30;51.60
51815;DHT22;37874;53.158;6.766;2023-04-03T06:36:11;18.30;51.70
51815;DHT22;37874;53.158;6.766;2023-04-03T06:38:37;18.30;51.70
51815;DHT22;37874;53.158;6.766;2023-04-03T06:41:03;18.40;51.70
51815;DHT22;37874;53.158;6.766;2023-04-03T06:43:29;18.30;51.80
51815;DHT22;37874;53.158;6.766;2023-04-03T06:45:56;18.30;51.80
51815;DHT22;37874;53.158;6.766;2023-04-03T06:48:22;18.30;51.80
51815;DHT22;37874;53.158;6.766;2023-04-03T06:50:48;18.40;51.90
51815;DHT22;37874;53.158;6.766;2023-04-03T06:53:14;18.30;51.80
51815;DHT22;37874;53.158;6.766;2023-04-03T06:55:40;18.30;51.80
51815;DHT22;37874;53.158;6.766;2023-04-03T06:58:06;18.30;51.80
51815;DHT22;37874;53.158;6.766;2023-04-03T07:00:32;18.40;51.80
51815;DHT22;37874;53.158;6.766;2023-04-03T07:02:57;18.30;51.90
51815;DHT22;37874;53.158;6.766;2023-04-03T07:05:24;18.30;51.80
51815;DHT22;37874;53.158;6.766;2023-04-03T07:07:50;18.30;51.80
51815;DHT22;37874;53.158;6.766;2023-04-03T07:10:16;18.30;52.00
51815;DHT22;37874;53.158;6.766;2023-04-03T07:12:42;18.30;51.90
51815;DHT22;37874;53.158;6.766;2023-04-03T07:15:08;18.30;51.70
51815;DHT22;37874;53.158;6.766;2023-04-03T07:17:34;18.30;51.70
51815;DHT22;37874;53.158;6.766;2023-04-03T07:20:01;18.50;51.80
51815;DHT22;37874;53.158;6.766;2023-04-03T07:22:26;18.30;51.80
51815;DHT22;37874;53.158;6.766;2023-04-03T07:24:52;18.30;51.90
51815;DHT22;37874;53.158;6.766;2023-04-03T07:27:18;18.40;52.00
51815;DHT22;37874;53.158;6.766;2023-04-03T07:29:43;18.30;52.00
51815;DHT22;37874;53.158;6.766;2023-04-03T07:32:10;18.30;52.00
51815;DHT22;37874;53.158;6.766;2023-04-03T07:34:36;18.40;51.90
51815;DHT22;37874;53.158;6.766;2023-04-03T07:37:02;18.40;51.90
51815;DHT22;37874;53.158;6.766;2023-04-03T07:39:28;18.30;51.80
51815;DHT22;37874;53.158;6.766;2023-04-03T07:41:54;18.40;51.90
51815;DHT22;37874;53.158;6.766;2023-04-03T07:44:23;18.30;51.80
51815;DHT22;37874;53.158;6.766;2023-04-03T07:46:49;18.30;51.90
51815;DHT22;37874;53.158;6.766;2023-04-03T07:49:16;18.40;52.00
51815;DHT22;37874;53.158;6.766;2023-04-03T07:51:43;18.30;52.00
51815;DHT22;37874;53.158;6.766;2023-04-03T07:54:09;18.40;52.00
51815;DHT22;37874;53.158;6.766;2023-04-03T07:56:35;18.30;52.00
51815;DHT22;37874;53.158;6.766;2023-04-03T07:59:00;18.30;51.90
51815;DHT22;37874;53.158;6.766;2023-04-03T08:01:26;18.30;51.80
51815;DHT22;37874;53.158;6.766;2023-04-03T08:03:52;18.30;51.80
51815;DHT22;37874;53.158;6.766;2023-04-03T08:06:17;18.40;51.90
51815;DHT22;37874;53.158;6.766;2023-04-03T08:08:43;18.30;52.00
51815;DHT22;37874;53.158;6.766;2023-04-03T08:11:10;18.30;51.80
51815;DHT22;37874;53.158;6.766;2023-04-03T08:13:36;18.30;51.90
51815;DHT22;37874;53.158;6.766;2023-04-03T08:16:10;18.30;51.80
51815;DHT22;37874;53.158;6.766;2023-04-03T08:18:36;18.30;51.70
51815;DHT22;37874;53.158;6.766;2023-04-03T08:21:06;18.30;51.70
51815;DHT22;37874;53.158;6.766;2023-04-03T08:23:31;18.30;52.00
51815;DHT22;37874;53.158;6.766;2023-04-03T08:25:57;18.30;51.80
51815;DHT22;37874;53.158;6.766;2023-04-03T08:28:22;18.30;51.80
51815;DHT22;37874;53.158;6.766;2023-04-03T08:30:48;18.30;51.90
51815;DHT22;37874;53.158;6.766;2023-04-03T08:33:14;18.30;52.00
51815;DHT22;37874;53.158;6.766;2023-04-03T08:35:41;18.30;51.80
51815;DHT22;37874;53.158;6.766;2023-04-03T08:38:08;18.30;51.80
51815;DHT22;37874;53.158;6.766;2023-04-03T08:40:33;18.30;51.90
51815;DHT22;37874;53.158;6.766;2023-04-03T08:43:03;18.30;52.20
51815;DHT22;37874;53.158;6.766;2023-04-03T08:45:50;18.30;52.00
51815;DHT22;37874;53.158;6.766;2023-04-03T08:48:19;18.50;52.10
51815;DHT22;37874;53.158;6.766;2023-04-03T08:50:48;18.30;51.80
51815;DHT22;37874;53.158;6.766;2023-04-03T08:53:19;18.30;51.60
51815;DHT22;37874;53.158;6.766;2023-04-03T08:55:47;18.30;51.70
51815;DHT22;37874;53.158;6.766;2023-04-03T09:01:02;18.40;51.70
51815;DHT22;37874;53.158;6.766;2023-04-03T09:03:41;18.30;51.80
51815;DHT22;37874;53.158;6.766;2023-04-03T09:06:20;18.30;51.70
51815;DHT22;37874;53.158;6.766;2023-04-03T09:16:58;18.40;51.60
51815;DHT22;37874;53.158;6.766;2023-04-03T09:22:16;18.40;51.50
51815;DHT22;37874;53.158;6.766;2023-04-03T09:24:45;18.30;51.70
51815;DHT22;37874;53.158;6.766;2023-04-03T09:27:12;18.30;51.60
51815;DHT22;37874;53.158;6.766;2023-04-03T09:29:41;18.40;51.60
51815;DHT22;37874;53.158;6.766;2023-04-03T09:32:32;18.40;51.50
51815;DHT22;37874;53.158;6.766;2023-04-03T09:35:04;18.40;51.60
51815;DHT22;37874;53.158;6.766;2023-04-03T09:37:44;18.40;51.50
51815;DHT22;37874;53.158;6.766;2023-04-03T09:43:00;18.40;51.60
51815;DHT22;37874;53.158;6.766;2023-04-03T09:45:34;18.40;51.70
51815;DHT22;37874;53.158;6.766;2023-04-03T09:48:12;18.40;51.60
51815;DHT22;37874;53.158;6.766;2023-04-03T09:53:37;18.40;51.60
51815;DHT22;37874;53.158;6.766;2023-04-03T09:56:20;18.40;51.50
51815;DHT22;37874;53.158;6.766;2023-04-03T10:01:35;18.50;51.50
51815;DHT22;37874;53.158;6.766;2023-04-03T10:04:16;18.40;51.40
51815;DHT22;37874;53.158;6.766;2023-04-03T10:06:43;18.50;51.40
51815;DHT22;37874;53.158;6.766;2023-04-03T10:12:03;18.40;51.30
51815;DHT22;37874;53.158;6.766;2023-04-03T10:14:37;18.50;51.40
51815;DHT22;37874;53.158;6.766;2023-04-03T10:17:33;18.50;51.20
51815;DHT22;37874;53.158;6.766;2023-04-03T10:23:15;18.50;51.10
51815;DHT22;37874;53.158;6.766;2023-04-03T10:31:21;18.50;51.10
51815;DHT22;37874;53.158;6.766;2023-04-03T10:34:06;18.50;51.30
51815;DHT22;37874;53.158;6.766;2023-04-03T10:36:44;18.50;51.10
51815;DHT22;37874;53.158;6.766;2023-04-03T10:39:30;18.50;51.10
51815;DHT22;37874;53.158;6.766;2023-04-03T10:45:10;18.50;51.10
51815;DHT22;37874;53.158;6.766;2023-04-03T10:47:54;18.60;51.20
51815;DHT22;37874;53.158;6.766;2023-04-03T10:53:31;18.60;50.90
51815;DHT22;37874;53.158;6.766;2023-04-03T10:59:06;18.50;51.00
51815;DHT22;37874;53.158;6.766;2023-04-03T11:01:37;18.60;51.10
51815;DHT22;37874;53.158;6.766;2023-04-03T11:04:05;18.50;50.80
51815;DHT22;37874;53.158;6.766;2023-04-03T11:06:47;18.50;50.80
51815;DHT22;37874;53.158;6.766;2023-04-03T11:09:28;18.60;50.90
51815;DHT22;37874;53.158;6.766;2023-04-03T11:12:13;18.60;50.70
51815;DHT22;37874;53.158;6.766;2023-04-03T11:14:40;18.60;50.70
51815;DHT22;37874;53.158;6.766;2023-04-03T11:20:01;18.60;50.70
51815;DHT22;37874;53.158;6.766;2023-04-03T11:22:42;18.60;50.40
51815;DHT22;37874;53.158;6.766;2023-04-03T11:27:49;18.60;50.60
51815;DHT22;37874;53.158;6.766;2023-04-03T11:30:23;18.60;50.60
51815;DHT22;37874;53.158;6.766;2023-04-03T11:33:03;18.70;50.80
51815;DHT22;37874;53.158;6.766;2023-04-03T11:35:31;18.50;50.60
51815;DHT22;37874;53.158;6.766;2023-04-03T11:37:59;18.70;50.60
51815;DHT22;37874;53.158;6.766;2023-04-03T11:40:29;18.70;50.60
51815;DHT22;37874;53.158;6.766;2023-04-03T11:43:07;18.80;50.70
51815;DHT22;37874;53.158;6.766;2023-04-03T11:46:01;18.80;50.60
51815;DHT22;37874;53.158;6.766;2023-04-03T11:53:43;19.30;49.80
51815;DHT22;37874;53.158;6.766;2023-04-03T11:56:28;19.50;49.60
51815;DHT22;37874;53.158;6.766;2023-04-03T12:01:57;19.70;48.90
51815;DHT22;37874;53.158;6.766;2023-04-03T12:04:25;19.90;48.50
51815;DHT22;37874;53.158;6.766;2023-04-03T12:07:01;20.00;48.10
51815;DHT22;37874;53.158;6.766;2023-04-03T12:09:56;20.10;47.80
51815;DHT22;37874;53.158;6.766;2023-04-03T12:12:35;20.20;47.70
51815;DHT22;37874;53.158;6.766;2023-04-03T12:18:40;20.20;47.70
51815;DHT22;37874;53.158;6.766;2023-04-03T12:21:07;20.10;47.80
51815;DHT22;37874;53.158;6.766;2023-04-03T12:23:35;20.00;48.00
51815;DHT22;37874;53.158;6.766;2023-04-03T12:26:20;20.00;48.00
51815;DHT22;37874;53.158;6.766;2023-04-03T12:28:48;20.00;48.30
51815;DHT22;37874;53.158;6.766;2023-04-03T12:31:16;20.00;48.30
51815;DHT22;37874;53.158;6.766;2023-04-03T12:34:00;19.90;48.30
51815;DHT22;37874;53.158;6.766;2023-04-03T12:36:42;19.90;48.50
51815;DHT22;37874;53.158;6.766;2023-04-03T12:45:19;20.30;48.50
51815;DHT22;37874;53.158;6.766;2023-04-03T12:47:45;20.10;49.00
51815;DHT22;37874;53.158;6.766;2023-04-03T12:50:29;20.10;48.20
51815;DHT22;37874;53.158;6.766;2023-04-03T12:55:30;20.30;48.00
51815;DHT22;37874;53.158;6.766;2023-04-03T12:57:55;20.30;47.90
51815;DHT22;37874;53.158;6.766;2023-04-03T13:02:56;20.40;47.60
51815;DHT22;37874;53.158;6.766;2023-04-03T13:05:23;20.60;47.60
51815;DHT22;37874;53.158;6.766;2023-04-03T13:07:52;20.50;47.30
51815;DHT22;37874;53.158;6.766;2023-04-03T13:10:20;20.60;47.40
51815;DHT22;37874;53.158;6.766;2023-04-03T13:12:51;20.70;47.20
51815;DHT22;37874;53.158;6.766;2023-04-03T13:15:20;20.80;47.00
51815;DHT22;37874;53.158;6.766;2023-04-03T13:17:46;20.90;46.80
51815;DHT22;37874;53.158;6.766;2023-04-03T13:22:55;21.20;46.10
51815;DHT22;37874;53.158;6.766;2023-04-03T13:25:24;21.50;45.70
51815;DHT22;37874;53.158;6.766;2023-04-03T13:27:51;21.80;45.40
51815;DHT22;37874;53.158;6.766;2023-04-03T13:30:27;21.90;44.80
51815;DHT22;37874;53.158;6.766;2023-04-03T13:32:55;22.10;44.50
51815;DHT22;37874;53.158;6.766;2023-04-03T13:35:36;22.20;44.20
51815;DHT22;37874;53.158;6.766;2023-04-03T13:40:52;22.40;43.80
51815;DHT22;37874;53.158;6.766;2023-04-03T13:43:25;22.50;43.60
51815;DHT22;37874;53.158;6.766;2023-04-03T13:46:05;22.60;43.50
51815;DHT22;37874;53.158;6.766;2023-04-03T13:48:46;22.60;43.40
51815;DHT22;37874;53.158;6.766;2023-04-03T13:53:48;22.70;43.20
51815;DHT22;37874;53.158;6.766;2023-04-03T13:56:41;22.80;43.20
51815;DHT22;37874;53.158;6.766;2023-04-03T14:01:43;22.90;43.10
51815;DHT22;37874;53.158;6.766;2023-04-03T14:04:30;22.90;43.00
51815;DHT22;37874;53.158;6.766;2023-04-03T14:06:57;22.90;43.00
51815;DHT22;37874;53.158;6.766;2023-04-03T14:09:25;23.00;42.90
51815;DHT22;37874;53.158;6.766;2023-04-03T14:12:02;23.00;42.90
51815;DHT22;37874;53.158;6.766;2023-04-03T14:14:32;23.00;42.80
51815;DHT22;37874;53.158;6.766;2023-04-03T14:17:02;23.00;42.80
51815;DHT22;37874;53.158;6.766;2023-04-03T14:19:34;23.10;42.70
51815;DHT22;37874;53.158;6.766;2023-04-03T14:22:11;23.20;42.70
51815;DHT22;37874;53.158;6.766;2023-04-03T14:24:38;22.80;42.50
51815;DHT22;37874;53.158;6.766;2023-04-03T14:27:14;23.20;42.60
51815;DHT22;37874;53.158;6.766;2023-04-03T14:29:41;23.30;42.60
51815;DHT22;37874;53.158;6.766;2023-04-03T14:32:06;23.30;42.50
51815;DHT22;37874;53.158;6.766;2023-04-03T14:34:32;23.60;42.60
51815;DHT22;37874;53.158;6.766;2023-04-03T14:36:57;23.30;42.40
51815;DHT22;37874;53.158;6.766;2023-04-03T14:39:23;23.40;42.40
51815;DHT22;37874;53.158;6.766;2023-04-03T14:41:49;23.40;42.50
51815;DHT22;37874;53.158;6.766;2023-04-03T14:44:14;23.40;42.40
51815;DHT22;37874;53.158;6.766;2023-04-03T14:46:42;23.40;42.40
51815;DHT22;37874;53.158;6.766;2023-04-03T14:49:19;23.40;42.30
51815;DHT22;37874;53.158;6.766;2023-04-03T14:51:46;23.40;42.30
51815;DHT22;37874;53.158;6.766;2023-04-03T14:54:18;23.40;42.20
51815;DHT22;37874;53.158;6.766;2023-04-03T14:56:47;23.50;42.20
51815;DHT22;37874;53.158;6.766;2023-04-03T14:59:14;23.50;42.20
51815;DHT22;37874;53.158;6.766;2023-04-03T15:01:41;23.50;42.20
51815;DHT22;37874;53.158;6.766;2023-04-03T15:04:17;23.50;42.10
51815;DHT22;37874;53.158;6.766;2023-04-03T15:06:44;23.60;42.10
51815;DHT22;37874;53.158;6.766;2023-04-03T15:09:28;23.60;41.90
51815;DHT22;37874;53.158;6.766;2023-04-03T15:11:55;23.80;41.80
51815;DHT22;37874;53.158;6.766;2023-04-03T15:14:20;23.50;41.60
51815;DHT22;37874;53.158;6.766;2023-04-03T15:16:46;23.70;41.80
51815;DHT22;37874;53.158;6.766;2023-04-03T15:19:12;23.70;41.80
51815;DHT22;37874;53.158;6.766;2023-04-03T15:21:38;23.70;41.90
51815;DHT22;37874;53.158;6.766;2023-04-03T15:24:04;23.70;42.00
51815;DHT22;37874;53.158;6.766;2023-04-03T15:26:30;23.70;42.00
51815;DHT22;37874;53.158;6.766;2023-04-03T15:28:56;23.80;42.00
51815;DHT22;37874;53.158;6.766;2023-04-03T15:31:22;23.80;42.00
51815;DHT22;37874;53.158;6.766;2023-04-03T15:33:48;23.90;42.00
51815;DHT22;37874;53.158;6.766;2023-04-03T15:36:13;24.00;42.10
51815;DHT22;37874;53.158;6.766;2023-04-03T15:38:39;24.10;42.00
51815;DHT22;37874;53.158;6.766;2023-04-03T15:41:05;24.20;42.00
51815;DHT22;37874;53.158;6.766;2023-04-03T15:43:31;24.20;41.80
51815;DHT22;37874;53.158;6.766;2023-04-03T15:45:59;24.20;41.60
51815;DHT22;37874;53.158;6.766;2023-04-03T15:48:26;24.20;41.50
51815;DHT22;37874;53.158;6.766;2023-04-03T15:50:53;24.40;41.50
51815;DHT22;37874;53.158;6.766;2023-04-03T15:53:18;24.40;41.30
51815;DHT22;37874;53.158;6.766;2023-04-03T15:55:44;24.50;41.20
51815;DHT22;37874;53.158;6.766;2023-04-03T15:58:10;24.60;41.10
51815;DHT22;37874;53.158;6.766;2023-04-03T16:00:36;24.70;41.10
51815;DHT22;37874;53.158;6.766;2023-04-03T16:03:09;24.70;41.00
51815;DHT22;37874;53.158;6.766;2023-04-03T16:05:37;24.80;41.00
51815;DHT22;37874;53.158;6.766;2023-04-03T16:08:03;24.80;41.00
51815;DHT22;37874;53.158;6.766;2023-04-03T16:10:29;24.80;40.80
51815;DHT22;37874;53.158;6.766;2023-04-03T16:12:55;24.80;40.90
51815;DHT22;37874;53.158;6.766;2023-04-03T16:15:21;24.80;40.90
51815;DHT22;37874;53.158;6.766;2023-04-03T16:17:47;24.80;40.90
51815;DHT22;37874;53.158;6.766;2023-04-03T16:20:14;24.80;41.00
51815;DHT22;37874;53.158;6.766;2023-04-03T16:22:40;24.70;41.10
51815;DHT22;37874;53.158;6.766;2023-04-03T16:25:07;24.80;41.30
51815;DHT22;37874;53.158;6.766;2023-04-03T16:27:33;24.60;41.30
51815;DHT22;37874;53.158;6.766;2023-04-03T16:29:59;24.60;41.40
51815;DHT22;37874;53.158;6.766;2023-04-03T16:32:27;24.60;41.90
51815;DHT22;37874;53.158;6.766;2023-04-03T16:34:54;24.60;41.60
51815;DHT22;37874;53.158;6.766;2023-04-03T16:37:20;24.40;41.60
51815;DHT22;37874;53.158;6.766;2023-04-03T16:39:45;24.50;41.70
51815;DHT22;37874;53.158;6.766;2023-04-03T16:42:11;24.50;42.40
51815;DHT22;37874;53.158;6.766;2023-04-03T16:44:37;24.50;41.90
51815;DHT22;37874;53.158;6.766;2023-04-03T16:47:03;24.40;41.90
51815;DHT22;37874;53.158;6.766;2023-04-03T16:49:28;24.40;42.10
51815;DHT22;37874;53.158;6.766;2023-04-03T16:51:58;24.30;42.10
51815;DHT22;37874;53.158;6.766;2023-04-03T16:54:24;24.30;42.10
51815;DHT22;37874;53.158;6.766;2023-04-03T16:56:50;24.30;42.10
51815;DHT22;37874;53.158;6.766;2023-04-03T16:59:16;24.30;42.10
51815;DHT22;37874;53.158;6.766;2023-04-03T17:01:41;24.20;42.20
51815;DHT22;37874;53.158;6.766;2023-04-03T17:04:07;24.00;42.30
51815;DHT22;37874;53.158;6.766;2023-04-03T17:06:33;23.90;42.50
51815;DHT22;37874;53.158;6.766;2023-04-03T17:08:58;23.80;42.60